Time;durP1;ratioP1;P1;durP2;ratioP2;P2;SDS_P1;SDS_P2;PMS_P1;PMS_P2;Temp;Humidity;BMP_temperature;BMP_pressure;BME280_temperature;BME280_humidity;BME280_pressure;Samples;Min_cycle;Max_cycle;Signal;HPM_P1;HPM_P2
2021/03/22 00:00:40;;;;;;;7.28;6.58;;;;;;;8.70;51.62;101248.89;1702867;84;21588;-47
2021/03/22 00:03:08;;;;;;;8.68;6.22;;;;;;;8.68;51.61;101249.34;1702892;84;21164;-46
2021/03/22 00:05:36;;;;;;;6.55;5.90;;;;;;;8.65;51.55;101254.56;1711715;82;21161;-46
2021/03/22 00:08:06;;;;;;;7.28;6.58;;;;;;;8.64;51.56;101232.06;1733825;82;21117;-49
2021/03/22 00:10:37;;;;;;;8.00;6.15;;;;;;;8.64;51.67;101225.16;1732431;82;21153;-49
2021/03/22 00:13:04;;;;;;;7.97;6.40;;;;;;;8.64;51.80;101222.98;1732472;82;21149;-43
2021/03/22 00:15:35;;;;;;;6.92;6.15;;;;;;;8.66;51.73;101219.52;1732482;82;21145;-47
2021/03/22 00:18:08;;;;;;;7.47;6.65;;;;;;;8.71;51.54;101211.72;1736059;81;21152;-42
2021/03/22 00:20:37;;;;;;;6.45;5.85;;;;;;;8.73;51.54;101206.08;1766424;81;21565;-46
2021/03/22 00:23:05;;;;;;;7.55;6.40;;;;;;;8.75;51.52;101205.63;1765466;81;21149;-43
2021/03/22 00:25:33;;;;;;;7.50;5.55;;;;;;;8.77;51.40;101209.08;1763156;81;21141;-46
2021/03/22 00:28:03;;;;;;;6.85;6.25;;;;;;;8.78;51.40;101209.48;1762811;81;21302;-47
2021/03/22 00:30:36;;;;;;;6.72;6.03;;;;;;;8.77;51.24;101207.78;1762788;80;21152;-45
2021/03/22 00:33:05;;;;;;;7.65;6.28;;;;;;;8.78;51.19;101199.11;1763232;81;21117;-43
2021/03/22 00:35:35;;;;;;;7.17;6.37;;;;;;;8.76;51.12;101198.25;1763206;80;21145;-50
2021/03/22 00:38:03;;;;;;;6.83;6.03;;;;;;;8.74;51.19;101196.11;1763106;81;21561;-46
2021/03/22 00:40:33;;;;;;;7.90;6.55;;;;;;;8.73;51.34;101193.11;1758940;81;21203;-46
2021/03/22 00:43:01;;;;;;;8.63;6.50;;;;;;;8.74;51.33;101189.63;1766127;80;21113;-46
2021/03/22 00:45:31;;;;;;;6.50;5.70;;;;;;;8.74;51.31;101187.03;1762726;81;21141;-44
2021/03/22 00:47:59;;;;;;;7.50;6.42;;;;;;;8.77;51.26;101185.30;1763807;81;21766;-45
2021/03/22 00:50:33;;;;;;;7.53;6.75;;;;;;;8.80;51.20;101184.38;1763618;81;21167;-47
2021/03/22 00:53:08;;;;;;;8.38;7.47;;;;;;;8.87;51.04;101170.50;1771651;79;22995;-47
2021/03/22 00:55:36;;;;;;;7.15;6.45;;;;;;;8.86;50.97;101170.93;1741481;82;21164;-47
2021/03/22 00:58:04;;;;;;;7.62;6.83;;;;;;;8.87;50.97;101161.42;1734040;82;21597;-48
2021/03/22 01:00:43;;;;;;;9.60;7.08;;;;;;;8.87;50.86;101153.64;1741311;82;21148;-45
2021/03/22 01:03:18;;;;;;;7.40;6.37;;;;;;;8.83;50.89;101164.48;1735452;82;21137;-46
2021/03/22 01:05:47;;;;;;;8.75;6.92;;;;;;;8.81;50.96;101149.80;1739887;82;21298;-47
2021/03/22 01:08:16;;;;;;;7.03;6.33;;;;;;;8.80;51.14;101150.66;1737090;82;21573;-43
2021/03/22 01:10:50;;;;;;;7.97;7.17;;;;;;;8.77;51.36;101144.21;1737808;82;21577;-47
2021/03/22 01:13:20;;;;;;;9.45;7.62;;;;;;;8.74;51.60;101139.90;1738472;82;21180;-46
2021/03/22 01:15:49;;;;;;;8.30;6.78;;;;;;;8.73;51.74;101134.73;1737452;82;21684;-45
2021/03/22 01:18:22;;;;;;;7.53;6.83;;;;;;;8.73;51.82;101132.14;1744595;82;21589;-45
2021/03/22 01:21:00;;;;;;;7.80;6.78;;;;;;;8.78;52.06;101122.13;1771659;79;22926;-42
2021/03/22 01:23:27;;;;;;;7.67;6.92;;;;;;;8.78;51.92;101126.45;1692722;84;21651;-47
2021/03/22 01:25:55;;;;;;;8.68;7.62;;;;;;;8.79;51.92;101120.41;1686630;84;21175;-47
2021/03/22 01:28:23;;;;;;;9.18;7.40;;;;;;;8.82;51.80;101117.80;1687054;84;21210;-42
2021/03/22 01:30:57;;;;;;;8.88;7.17;;;;;;;8.83;51.80;101114.31;1686262;84;21175;-46
2021/03/22 01:33:27;;;;;;;9.20;7.00;;;;;;;8.84;51.94;101123.84;1686816;84;21193;-43
2021/03/22 01:36:00;;;;;;;8.10;7.30;;;;;;;8.83;51.92;101122.10;1686941;84;21147;-44
2021/03/22 01:38:28;;;;;;;9.45;7.62;;;;;;;8.82;51.99;101122.99;1683302;84;21213;-46
2021/03/22 01:41:25;;;;;;;9.33;8.33;;;;;;;8.80;52.02;101123.41;1689686;84;21226;-48
2021/03/22 01:44:11;;;;;;;9.10;7.92;;;;;;;8.79;52.22;101118.68;1684579;83;21610;-46
2021/03/22 01:46:43;;;;;;;10.38;7.67;;;;;;;8.80;52.29;101117.79;1693050;84;21650;-46
2021/03/22 01:49:11;;;;;;;7.53;6.83;;;;;;;8.82;52.39;101110.85;1665191;84;21646;-45
2021/03/22 01:51:39;;;;;;;9.08;7.80;;;;;;;8.85;52.23;101113.44;1689612;84;21199;-43
2021/03/22 01:54:08;;;;;;;9.03;7.92;;;;;;;8.87;52.17;101105.63;1689572;84;21379;-44
2021/03/22 01:56:52;;;;;;;9.53;8.30;;;;;;;8.87;52.09;101108.22;1687961;84;21218;-50
2021/03/22 01:59:30;;;;;;;9.35;8.35;;;;;;;8.90;52.08;101101.26;1771197;79;23542;-44
2021/03/22 02:02:02;;;;;;;9.60;7.90;;;;;;;8.85;52.04;101103.48;1740176;82;21156;-46
2021/03/22 02:04:30;;;;;;;12.35;8.43;;;;;;;8.82;52.02;101099.64;1738505;82;21156;-46
2021/03/22 02:06:58;;;;;;;9.60;8.20;;;;;;;8.81;52.05;101100.50;1739927;82;21192;-46
2021/03/22 02:09:27;;;;;;;11.80;8.45;;;;;;;8.77;51.89;101091.02;1708740;82;21175;-46
2021/03/22 02:11:55;;;;;;;9.63;7.92;;;;;;;8.75;51.96;101093.64;1741521;82;21514;-44
2021/03/22 02:14:23;;;;;;;14.18;8.08;;;;;;;8.75;52.27;101097.53;1741149;82;21287;-43
2021/03/22 02:17:14;;;;;;;8.33;7.30;;;;;;;8.76;52.30;101097.06;1735893;82;21155;-42
2021/03/22 02:20:17;;;;;;;8.65;7.75;;;;;;;8.77;52.16;101086.70;1721260;82;21272;-46
2021/03/22 02:23:02;;;;;;;12.23;8.65;;;;;;;8.79;52.00;101089.27;1726032;82;21171;-43
2021/03/22 02:26:01;;;;;;;9.63;8.48;;;;;;;8.84;52.18;101083.62;1766632;79;23382;-46
2021/03/22 02:29:17;;;;;;;9.05;8.15;;;;;;;8.80;52.19;101084.48;1734520;82;21734;-45
2021/03/22 02:32:00;;;;;;;9.15;7.95;;;;;;;8.78;52.43;101082.34;1731513;82;21178;-48
2021/03/22 02:34:43;;;;;;;9.50;7.90;;;;;;;8.72;52.37;101070.30;1731551;82;21144;-47
2021/03/22 02:37:37;;;;;;;9.90;8.28;;;;;;;8.68;52.28;101066.02;1731626;82;21192;-47
2021/03/22 02:40:21;;;;;;;9.25;7.70;;;;;;;8.68;52.45;101065.15;1733050;82;21152;-46
2021/03/22 02:42:50;;;;;;;9.53;7.65;;;;;;;8.68;52.46;101063.84;1721445;82;21164;-46
2021/03/22 02:45:23;;;;;;;10.53;8.55;;;;;;;8.68;52.49;101059.53;1733620;82;21302;-47
2021/03/22 02:47:51;;;;;;;8.00;7.20;;;;;;;8.70;52.48;101058.20;1728036;82;21140;-46
2021/03/22 02:50:24;;;;;;;7.75;6.87;;;;;;;8.72;52.28;101048.67;1737812;82;21298;-43
2021/03/22 02:53:27;;;;;;;7.85;6.33;;;;;;;8.74;51.94;101046.50;1735689;82;21537;-46
2021/03/22 02:56:35;;;;;;;7.95;6.53;;;;;;;8.75;51.83;101039.58;1730471;82;21305;-45
2021/03/22 02:59:22;;;;;;;7.85;7.05;;;;;;;8.74;51.81;101032.23;1744932;82;21179;-41
2021/03/22 03:01:56;;;;;;;7.45;6.30;;;;;;;8.73;51.61;101030.52;1735812;82;21203;-45
2021/03/22 03:04:24;;;;;;;7.40;6.60;;;;;;;8.72;51.69;101026.20;1735271;82;21187;-42
2021/03/22 03:06:58;;;;;;;8.03;6.58;;;;;;;8.72;51.81;101024.03;1732532;82;21188;-46
2021/03/22 03:09:32;;;;;;;6.53;5.92;;;;;;;8.72;51.77;101022.73;1730750;82;21145;-46
2021/03/22 03:12:24;;;;;;;7.55;6.78;;;;;;;8.74;51.67;101014.50;1733861;82;21160;-46
2021/03/22 03:14:55;;;;;;;8.05;6.80;;;;;;;8.77;51.58;101011.45;1707952;84;21181;-42
2021/03/22 03:17:25;;;;;;;;;;;;;;;8.84;51.39;101022.64;1705372;84;21596;-46
2021/03/22 03:19:53;;;;;;;7.12;6.35;;;;;;;8.88;51.05;101017.84;1708524;84;20219;-42
2021/03/22 03:22:22;;;;;;;7.97;6.12;;;;;;;8.89;50.91;101020.41;1708786;84;21163;-46
2021/03/22 03:24:50;;;;;;;8.55;6.95;;;;;;;8.91;50.83;101019.08;1708653;82;21302;-42
2021/03/22 03:27:18;;;;;;;8.40;6.50;;;;;;;8.91;50.86;101008.27;1708751;84;21693;-44
2021/03/22 03:29:46;;;;;;;7.20;6.28;;;;;;;8.91;50.83;101011.30;1708817;84;21191;-46
2021/03/22 03:32:18;;;;;;;6.67;6.08;;;;;;;8.92;50.79;101015.63;1708763;84;21175;-42
2021/03/22 03:34:46;;;;;;;7.10;6.40;;;;;;;8.90;50.84;101014.78;1708833;83;21156;-43
2021/03/22 03:37:15;;;;;;;7.83;6.62;;;;;;;8.89;50.86;101008.73;1708173;83;21140;-50
2021/03/22 03:39:43;;;;;;;7.53;6.35;;;;;;;8.88;51.01;101008.75;1696813;84;21183;-45
2021/03/22 03:42:12;;;;;;;7.10;6.17;;;;;;;8.86;51.13;101008.75;1708271;84;21353;-45
2021/03/22 03:44:41;;;;;;;7.05;6.22;;;;;;;8.87;51.21;101009.61;1708209;84;21321;-46
2021/03/22 03:47:09;;;;;;;6.58;5.87;;;;;;;8.88;51.15;100996.61;1708218;84;21181;-46
2021/03/22 03:49:37;;;;;;;7.92;6.35;;;;;;;8.91;50.99;100993.13;1708217;84;21219;-47
2021/03/22 03:52:06;;;;;;;8.43;6.67;;;;;;;8.96;50.85;100992.19;1725650;82;21299;-50
2021/03/22 03:54:34;;;;;;;8.73;7.80;;;;;;;9.00;50.68;100990.45;1735150;82;21569;-42
2021/03/22 03:57:05;;;;;;;12.00;8.75;;;;;;;9.03;50.80;100988.66;1733119;82;21149;-41
2021/03/22 03:59:33;;;;;;;12.58;9.13;;;;;;;9.06;50.83;100990.80;1730589;82;21176;-46
2021/03/22 04:02:01;;;;;;;12.33;8.35;;;;;;;9.08;50.92;100988.62;1732860;82;21212;-46
2021/03/22 04:04:29;;;;;;;12.65;9.00;;;;;;;9.06;51.02;100977.39;1727946;81;21294;-41
2021/03/22 04:06:57;;;;;;;12.30;8.90;;;;;;;9.08;50.77;100985.16;1736491;82;21279;-45
2021/03/22 04:09:26;;;;;;;15.93;8.85;;;;;;;9.03;50.84;100972.22;1710188;82;21564;-45
2021/03/22 04:11:54;;;;;;;16.85;10.85;;;;;;;9.02;50.80;100982.20;1729700;82;21113;-46
2021/03/22 04:14:25;;;;;;;19.02;11.93;;;;;;;8.99;50.79;100980.92;1727542;82;21109;-45
2021/03/22 04:16:54;;;;;;;23.32;11.68;;;;;;;8.96;51.16;100987.00;1736274;82;21151;-42
2021/03/22 04:19:22;;;;;;;19.07;12.00;;;;;;;8.96;51.89;100988.77;1734970;82;21303;-46
2021/03/22 04:21:51;;;;;;;29.65;14.83;;;;;;;8.97;51.98;100980.09;1726241;82;21144;-45
2021/03/22 04:24:20;;;;;;;24.80;13.83;;;;;;;8.98;51.68;100976.16;1726788;82;21145;-42
2021/03/22 04:26:48;;;;;;;25.43;14.50;;;;;;;9.03;51.01;100972.22;1717116;82;21168;-42
2021/03/22 04:29:16;;;;;;;21.75;13.30;;;;;;;9.07;50.78;100970.48;1717490;82;21157;-46
2021/03/22 04:31:44;;;;;;;21.68;12.75;;;;;;;9.10;51.05;100970.42;1720983;82;21203;-46
2021/03/22 04:34:13;;;;;;;14.38;9.83;;;;;;;9.11;50.98;100967.80;1722022;82;21141;-43
2021/03/22 04:36:41;;;;;;;11.63;7.42;;;;;;;9.11;50.89;100967.80;1715210;82;21326;-48
2021/03/22 04:39:09;;;;;;;8.45;7.58;;;;;;;9.12;50.17;100969.53;1703552;82;21376;-46
2021/03/22 04:41:38;;;;;;;15.63;10.45;;;;;;;9.12;49.70;100966.06;1720342;82;21220;-46
2021/03/22 04:44:07;;;;;;;10.75;8.18;;;;;;;9.10;49.61;100955.71;1721968;82;21141;-47
2021/03/22 04:46:37;;;;;;;11.00;7.45;;;;;;;9.08;49.64;100953.58;1719136;82;21168;-47
2021/03/22 04:49:05;;;;;;;8.48;6.17;;;;;;;9.06;49.69;100954.03;1715312;82;21557;-43
2021/03/22 04:51:33;;;;;;;8.50;6.22;;;;;;;9.04;49.62;100957.09;1705489;82;21157;-42
2021/03/22 04:54:01;;;;;;;7.87;7.05;;;;;;;9.02;49.65;100949.76;1713394;82;21153;-45
2021/03/22 04:56:29;;;;;;;9.30;6.95;;;;;;;9.00;49.85;100945.86;1720394;82;21197;-46
2021/03/22 04:58:57;;;;;;;7.65;6.85;;;;;;;8.99;50.12;100950.65;1720518;82;21169;-45
2021/03/22 05:01:26;;;;;;;8.18;6.87;;;;;;;8.96;50.35;100944.18;1669169;85;21168;-48
2021/03/22 05:03:56;;;;;;;7.80;6.85;;;;;;;8.96;50.47;100942.88;1726204;82;21161;-45
2021/03/22 05:06:24;;;;;;;7.53;6.75;;;;;;;8.98;50.58;100940.30;1720172;82;21143;-42
2021/03/22 05:08:56;;;;;;;7.92;6.67;;;;;;;9.00;50.55;100939.38;1717282;82;21142;-46
2021/03/22 05:11:25;;;;;;;8.43;7.00;;;;;;;9.04;50.67;100942.81;1716977;82;21303;-42
2021/03/22 05:13:53;;;;;;;7.75;6.95;;;;;;;9.07;50.71;100941.45;1709938;82;21298;-45
2021/03/22 05:16:21;;;;;;;9.40;7.55;;;;;;;9.06;50.67;100941.05;1718690;82;21609;-46
2021/03/22 05:18:49;;;;;;;8.10;7.05;;;;;;;9.06;50.74;100935.00;1670905;85;21323;-48
2021/03/22 05:21:17;;;;;;;8.35;7.55;;;;;;;9.04;50.74;100932.43;1727092;82;21130;-45
2021/03/22 05:23:46;;;;;;;10.60;8.25;;;;;;;9.03;50.80;100933.29;1718428;82;21160;-43
2021/03/22 05:26:14;;;;;;;8.65;7.45;;;;;;;9.01;50.88;100923.37;1730665;82;21152;-46
2021/03/22 05:28:41;;;;;;;8.20;7.28;;;;;;;9.00;51.13;100929.45;1730827;82;21129;-46
2021/03/22 05:31:09;;;;;;;7.72;6.92;;;;;;;8.98;51.23;100919.53;1737469;81;21156;-46
2021/03/22 05:33:37;;;;;;;8.43;7.53;;;;;;;8.99;51.25;100917.34;1735345;82;21558;-45
2021/03/22 05:36:07;;;;;;;8.43;7.22;;;;;;;8.99;51.40;100908.25;1720829;82;21326;-47
2021/03/22 05:38:34;;;;;;;8.55;7.37;;;;;;;9.01;51.35;100902.61;1733634;82;21115;-46
2021/03/22 05:41:08;;;;;;;9.28;7.85;;;;;;;9.05;51.34;100895.20;1734944;82;21164;-46
2021/03/22 05:43:53;;;;;;;11.65;7.05;;;;;;;9.08;51.32;100896.90;1734639;82;21139;-46
2021/03/22 05:46:54;;;;;;;11.33;7.30;;;;;;;9.07;51.27;100894.73;1730951;82;21121;-46
2021/03/22 05:49:41;;;;;;;8.63;7.28;;;;;;;9.08;51.12;100895.17;1736351;82;21228;-42
2021/03/22 05:52:14;;;;;;;8.45;7.65;;;;;;;9.08;51.08;100904.25;1734154;82;21122;-42
2021/03/22 05:54:59;;;;;;;8.28;7.45;;;;;;;9.09;51.16;100897.33;1739563;82;21580;-42
2021/03/22 05:57:44;;;;;;;9.48;7.87;;;;;;;9.07;51.32;100886.95;1734506;82;21208;-47
2021/03/22 06:00:43;;;;;;;8.98;7.65;;;;;;;9.06;51.49;100896.93;1735225;82;21622;-45
2021/03/22 06:03:27;;;;;;;9.48;8.48;;;;;;;9.05;51.72;100901.69;1732558;82;21306;-46
2021/03/22 06:06:21;;;;;;;9.28;7.60;;;;;;;9.05;51.99;100897.79;1622758;88;21192;-46
2021/03/22 06:09:03;;;;;;;8.38;7.45;;;;;;;9.06;52.14;100893.03;1618550;88;21644;-46
2021/03/22 06:11:49;;;;;;;8.68;7.37;;;;;;;9.06;52.09;100891.73;1625593;88;21177;-45
2021/03/22 06:14:31;;;;;;;9.35;7.65;;;;;;;9.15;52.07;100888.99;1807324;79;23092;-46
2021/03/22 06:17:22;;;;;;;9.18;7.20;;;;;;;9.18;52.09;100886.80;1773526;80;21602;-45
2021/03/22 06:19:58;;;;;;;11.12;8.90;;;;;;;9.20;52.02;100881.15;1748572;82;21147;-47
2021/03/22 06:22:31;;;;;;;8.78;7.25;;;;;;;9.19;52.23;100877.69;1753966;82;21242;-46
2021/03/22 06:25:03;;;;;;;9.55;8.10;;;;;;;9.18;52.13;100877.28;1745469;82;21786;-44
2021/03/22 06:27:31;;;;;;;12.50;8.53;;;;;;;9.16;52.18;100871.26;1745335;82;21148;-47
2021/03/22 06:29:59;;;;;;;14.50;9.45;;;;;;;9.14;52.37;100880.80;1760420;81;21583;-43
2021/03/22 06:32:33;;;;;;;12.40;8.55;;;;;;;9.16;52.26;100898.52;1756098;82;21182;-46
2021/03/22 06:35:19;;;;;;;13.55;8.48;;;;;;;9.24;51.99;100893.20;1771580;79;22371;-47
2021/03/22 06:37:47;;;;;;;11.38;8.88;;;;;;;9.22;51.84;100905.36;1734018;82;21136;-47
2021/03/22 06:40:29;;;;;;;9.28;7.55;;;;;;;9.25;51.60;100898.41;1740716;82;21287;-48
2021/03/22 06:43:16;;;;;;;8.70;7.40;;;;;;;9.29;51.41;100900.08;1736268;82;21196;-48
2021/03/22 06:45:48;;;;;;;8.13;6.60;;;;;;;9.09;51.73;100904.66;1702653;84;21221;-42
2021/03/22 06:48:27;;;;;;;9.23;6.65;;;;;;;9.39;51.03;100899.49;1769086;79;22951;-46
2021/03/22 06:51:14;;;;;;;8.13;6.92;;;;;;;9.36;51.02;100906.02;1743390;82;21148;-49
2021/03/22 06:53:49;;;;;;;8.88;6.72;;;;;;;9.31;51.06;100900.91;1734687;82;21633;-45
2021/03/22 06:56:33;;;;;;;7.83;7.00;;;;;;;9.30;51.33;100904.80;1736240;82;21152;-47
2021/03/22 06:59:12;;;;;;;14.03;6.50;;;;;;;9.26;51.57;100894.91;1692169;84;21180;-45
2021/03/22 07:01:44;;;;;;;7.72;6.90;;;;;;;9.25;51.60;100889.75;1685395;84;21608;-43
2021/03/22 07:04:31;;;;;;;8.50;7.40;;;;;;;9.25;51.63;100890.61;1693024;84;21136;-43
2021/03/22 07:07:25;;;;;;;10.80;7.62;;;;;;;9.27;51.89;100890.16;1687938;84;21191;-45
2021/03/22 07:10:00;;;;;;;10.63;8.10;;;;;;;9.29;52.05;100897.48;1690134;84;21183;-42
2021/03/22 07:12:39;;;;;;;11.88;8.60;;;;;;;9.32;52.06;100898.72;1691319;84;21632;-45
2021/03/22 07:15:30;;;;;;;13.58;8.98;;;;;;;9.37;52.06;100896.92;1698798;84;21227;-46
2021/03/22 07:18:24;;;;;;;9.53;7.33;;;;;;;9.39;51.96;100904.25;1691287;84;21585;-48
2021/03/22 07:21:17;;;;;;;9.80;7.55;;;;;;;9.41;51.82;100902.49;1695538;84;21167;-44
2021/03/22 07:23:50;;;;;;;7.53;6.80;;;;;;;9.41;51.98;100907.69;1685803;84;21187;-44
2021/03/22 07:26:35;;;;;;;8.05;6.53;;;;;;;9.46;52.11;100911.05;1774174;79;23391;-42
2021/03/22 07:29:27;;;;;;;7.97;6.35;;;;;;;9.41;52.24;100907.69;1733556;82;21136;-49
2021/03/22 07:32:39;;;;;;;7.60;6.58;;;;;;;9.41;52.37;100904.22;1670525;85;21652;-48
2021/03/22 07:35:47;;;;;;;8.40;6.20;;;;;;;9.40;52.47;100898.16;1653014;86;21162;-46
2021/03/22 07:38:44;;;;;;;6.20;5.60;;;;;;;9.43;52.56;100894.23;1661371;86;21162;-44
2021/03/22 07:41:34;;;;;;;7.95;5.97;;;;;;;9.50;52.10;100890.65;1652878;86;21197;-45
2021/03/22 07:44:36;;;;;;;7.55;6.08;;;;;;;9.55;51.09;100887.98;1653214;86;21197;-47
2021/03/22 07:47:18;;;;;;;8.20;5.55;;;;;;;9.62;50.72;100891.75;1651139;86;21198;-47
2021/03/22 07:50:31;;;;;;;6.80;5.90;;;;;;;9.72;50.20;100887.29;1808455;79;22998;-46
2021/03/22 07:53:04;;;;;;;5.70;5.10;;;;;;;9.71;50.05;100892.92;1783257;80;21160;-42
2021/03/22 07:55:58;;;;;;;6.97;5.65;;;;;;;9.76;49.71;100886.36;1776202;80;21160;-46
2021/03/22 07:58:51;;;;;;;6.00;5.00;;;;;;;9.78;49.44;100884.59;1720622;83;21204;-47
2021/03/22 08:01:34;;;;;;;6.70;5.62;;;;;;;9.76;49.41;100887.22;1726222;83;21203;-47
2021/03/22 08:04:28;;;;;;;6.50;5.75;;;;;;;9.76;49.42;100869.03;1771496;79;23375;-46
2021/03/22 08:07:39;;;;;;;6.17;5.58;;;;;;;9.70;49.47;100869.13;1734091;82;21683;-48
2021/03/22 08:10:44;;;;;;;7.30;5.83;;;;;;;9.65;49.32;100863.14;1738396;82;21160;-45
2021/03/22 08:13:36;;;;;;;9.00;6.50;;;;;;;9.57;49.46;100858.52;1741193;82;21576;-44
2021/03/22 08:16:38;;;;;;;6.28;5.60;;;;;;;9.52;50.03;100857.71;1740579;82;21619;-42
2021/03/22 08:19:24;;;;;;;8.78;5.75;;;;;;;9.56;50.00;100864.57;1743644;82;21164;-46
2021/03/22 08:22:08;;;;;;;6.08;5.45;;;;;;;9.57;49.88;100858.94;1685672;84;21203;-45
2021/03/22 08:25:01;;;;;;;7.25;5.10;;;;;;;9.63;49.50;100855.81;1673792;84;21241;-46
2021/03/22 08:27:33;;;;;;;7.72;5.62;;;;;;;9.70;49.40;100842.28;1701442;84;21167;-43
2021/03/22 08:30:28;;;;;;;5.50;4.83;;;;;;;9.77;48.89;100849.94;1701438;84;21151;-45
2021/03/22 08:33:22;;;;;;;6.80;5.53;;;;;;;9.78;48.47;100850.37;1701281;84;21155;-47
2021/03/22 08:36:02;;;;;;;6.05;5.17;;;;;;;9.75;48.87;100855.61;1701290;84;21304;-42
2021/03/22 08:38:59;;;;;;;6.45;5.30;;;;;;;9.71;49.00;100853.95;1771555;79;23075;-48
2021/03/22 08:41:57;;;;;;;6.12;5.15;;;;;;;9.63;49.14;100854.52;1736740;82;21282;-47
2021/03/22 08:44:43;;;;;;;6.35;5.75;;;;;;;9.59;49.00;100854.58;1743532;82;21141;-49
2021/03/22 08:47:49;;;;;;;7.60;5.78;;;;;;;9.52;49.15;100853.81;1732068;82;21120;-46
2021/03/22 08:50:28;;;;;;;6.62;5.30;;;;;;;9.47;49.35;100859.98;1751084;82;21200;-46
2021/03/22 08:53:16;;;;;;;6.12;5.45;;;;;;;9.45;49.50;100847.02;1805552;79;22836;-46
2021/03/22 08:55:48;;;;;;;7.25;6.35;;;;;;;9.42;49.41;100851.38;1775859;80;21298;-42
2021/03/22 08:58:36;;;;;;;6.10;4.97;;;;;;;9.45;49.32;100852.22;1778855;80;21151;-47
2021/03/22 09:01:33;;;;;;;6.67;5.60;;;;;;;9.51;49.03;100846.92;1776089;80;21153;-47
2021/03/22 09:04:30;;;;;;;5.65;5.03;;;;;;;9.56;48.54;100837.77;1717403;82;21168;-42
2021/03/22 09:07:07;;;;;;;5.58;4.97;;;;;;;9.62;48.22;100847.59;1716639;82;21211;-45
2021/03/22 09:09:44;;;;;;;7.95;5.87;;;;;;;9.71;47.80;100839.66;1817969;79;22929;-46
2021/03/22 09:12:36;;;;;;;8.60;6.15;;;;;;;9.69;47.64;100841.42;1742878;82;21133;-45
2021/03/22 09:15:23;;;;;;;6.58;5.25;;;;;;;9.72;47.98;100838.78;1742446;82;21173;-44
2021/03/22 09:18:09;;;;;;;4.87;4.28;;;;;;;9.85;47.81;100836.80;1773148;79;23039;-46
2021/03/22 09:20:55;;;;;;;6.78;4.80;;;;;;;9.83;46.92;100838.57;1722825;82;21168;-46
2021/03/22 09:23:39;;;;;;;6.70;5.05;;;;;;;9.83;46.89;100839.88;1751059;82;21160;-44
2021/03/22 09:26:09;;;;;;;5.25;4.75;;;;;;;9.81;47.11;100837.31;1740543;82;21224;-42
2021/03/22 09:28:45;;;;;;;6.20;4.78;;;;;;;9.84;47.11;100835.97;1741122;82;21156;-47
2021/03/22 09:31:19;;;;;;;6.62;4.83;;;;;;;9.85;47.14;100829.87;1739623;82;21593;-46
2021/03/22 09:34:01;;;;;;;8.70;6.40;;;;;;;9.87;47.36;100830.30;1734618;82;21168;-46
2021/03/22 09:36:48;;;;;;;8.48;6.25;;;;;;;9.87;47.00;100831.61;1656630;84;21144;-43
2021/03/22 09:39:24;;;;;;;7.00;5.22;;;;;;;9.82;47.03;100821.28;1660514;86;21196;-45
2021/03/22 09:42:03;;;;;;;6.28;5.17;;;;;;;9.80;47.24;100823.92;1652886;86;21211;-43
2021/03/22 09:44:38;;;;;;;8.43;5.78;;;;;;;9.82;47.37;100823.45;1655912;86;21210;-48
2021/03/22 09:47:19;;;;;;;9.93;6.08;;;;;;;9.89;47.22;100816.84;1807244;79;22911;-47
2021/03/22 09:50:14;;;;;;;10.32;6.75;;;;;;;9.83;46.89;100818.65;1722532;83;21697;-47
2021/03/22 09:52:55;;;;;;;6.90;5.10;;;;;;;9.82;47.18;100814.35;1722929;83;21192;-47
2021/03/22 09:55:34;;;;;;;5.00;4.40;;;;;;;9.85;47.22;100813.41;1805698;79;22941;-43
2021/03/22 09:58:34;;;;;;;5.00;4.22;;;;;;;9.83;47.10;100810.85;1789159;80;21183;-46
2021/03/22 10:01:35;;;;;;;5.15;4.65;;;;;;;9.78;46.81;100809.23;1751765;81;21617;-45
2021/03/22 10:04:17;;;;;;;4.50;3.83;;;;;;;9.74;47.12;100808.44;1728386;83;21163;-43
2021/03/22 10:07:06;;;;;;;6.20;4.55;;;;;;;9.74;47.15;100808.44;1743948;81;21113;-43
2021/03/22 10:10:01;;;;;;;5.40;4.35;;;;;;;9.73;47.21;100801.50;1720519;83;21164;-49
2021/03/22 10:12:37;;;;;;;5.03;4.53;;;;;;;9.79;47.36;100809.63;1810406;79;22916;-47
2021/03/22 10:15:16;;;;;;;;;;;;;;;9.75;47.25;100804.94;1782308;80;21544;-47
2021/03/22 10:18:07;;;;;;;7.10;4.78;;;;;;;9.75;47.29;100803.63;1777459;80;20158;-43
2021/03/22 10:20:43;;;;;;;4.70;4.13;;;;;;;9.77;47.51;100797.97;1628674;87;21204;-46
2021/03/22 10:23:30;;;;;;;5.12;4.40;;;;;;;9.85;46.70;100798.69;1771855;79;23413;-47
2021/03/22 10:26:05;;;;;;;;;;;;;;;9.82;46.38;100800.49;1737479;82;21168;-46
2021/03/22 10:28:33;;;;;;;6.15;4.28;;;;;;;9.82;45.82;100796.16;1738113;82;20134;-47
2021/03/22 10:31:10;;;;;;;5.67;4.70;;;;;;;9.87;45.55;100795.22;1738077;81;21581;-46
2021/03/22 10:33:36;;;;;;;8.63;5.35;;;;;;;9.91;45.32;100783.88;1734304;82;21157;-42
2021/03/22 10:36:06;;;;;;;4.67;4.20;;;;;;;9.96;44.66;100784.63;1737882;82;21144;-48
2021/03/22 10:38:36;;;;;;;7.45;6.33;;;;;;;10.00;44.01;100786.28;1738071;81;21148;-47
2021/03/22 10:41:07;;;;;;;6.35;4.62;;;;;;;10.02;43.56;100787.98;1738579;81;21129;-48
2021/03/22 10:43:39;;;;;;;5.70;5.20;;;;;;;10.01;43.51;100775.89;1713544;82;21164;-45
2021/03/22 10:46:18;;;;;;;5.70;4.65;;;;;;;9.98;43.21;100777.66;1735484;82;21148;-46
2021/03/22 10:49:08;;;;;;;6.05;5.20;;;;;;;9.90;42.79;100779.55;1704855;84;21344;-46
2021/03/22 10:51:41;;;;;;;4.70;4.15;;;;;;;9.82;43.02;100779.70;1694505;84;21140;-47
2021/03/22 10:54:19;;;;;;;5.40;4.90;;;;;;;9.79;42.84;100765.02;1812590;79;22837;-47
2021/03/22 10:56:57;;;;;;;4.67;4.10;;;;;;;9.71;42.42;100764.30;1812872;79;22839;-43
2021/03/22 10:59:30;;;;;;;4.60;4.12;;;;;;;9.62;42.43;100766.22;1780492;80;21529;-48
2021/03/22 11:02:01;;;;;;;5.25;4.75;;;;;;;9.57;42.87;100764.99;1780281;80;21262;-42
2021/03/22 11:04:34;;;;;;;5.70;5.20;;;;;;;9.53;42.82;100761.17;1779435;80;21160;-43
2021/03/22 11:07:22;;;;;;;5.80;5.30;;;;;;;9.47;42.61;100756.95;1777420;80;21401;-46
2021/03/22 11:10:05;;;;;;;8.88;6.65;;;;;;;9.42;42.45;100756.59;1739084;82;21630;-46
2021/03/22 11:12:33;;;;;;;;;;;;;;;9.38;43.09;100755.80;1742382;82;21253;-44
2021/03/22 11:15:13;;;;;;;5.47;4.87;;;;;;;9.33;43.62;100748.54;1735326;82;20412;-45
2021/03/22 11:17:47;;;;;;;4.78;4.22;;;;;;;9.31;44.01;100752.91;1771663;79;23087;-48
2021/03/22 11:20:18;;;;;;;4.20;3.80;;;;;;;9.23;44.67;100750.88;1737807;82;21183;-47
2021/03/22 11:22:48;;;;;;;5.05;4.55;;;;;;;9.17;44.31;100749.64;1732137;82;21145;-47
2021/03/22 11:25:34;;;;;;;6.12;5.47;;;;;;;9.14;44.92;100749.71;1736810;82;21168;-46
2021/03/22 11:28:25;;;;;;;4.97;4.47;;;;;;;9.12;45.69;100750.61;1737539;82;21518;-45
2021/03/22 11:30:59;;;;;;;5.35;4.85;;;;;;;9.09;45.60;100741.59;1738780;82;21144;-42
2021/03/22 11:33:41;;;;;;;5.62;4.65;;;;;;;9.03;45.17;100745.12;1734637;82;21169;-46
2021/03/22 11:36:18;;;;;;;6.42;5.78;;;;;;;8.96;45.31;100746.11;1669412;85;21140;-45
2021/03/22 11:38:57;;;;;;;7.60;5.47;;;;;;;8.91;45.37;100744.88;1670949;85;21179;-47
2021/03/22 11:41:38;;;;;;;6.45;5.67;;;;;;;8.91;45.32;100745.31;1668519;85;21163;-44
2021/03/22 11:44:32;;;;;;;5.87;5.28;;;;;;;8.91;45.85;100737.09;1678350;85;21285;-46
2021/03/22 11:47:39;;;;;;;5.37;4.75;;;;;;;8.92;45.63;100737.95;1670452;85;21213;-48
2021/03/22 11:50:34;;;;;;;6.53;5.80;;;;;;;8.87;45.74;100738.02;1681499;85;21299;-47
2021/03/22 11:53:16;;;;;;;7.33;6.28;;;;;;;8.85;46.55;100732.00;1672855;85;21192;-42
2021/03/22 11:55:58;;;;;;;6.90;6.20;;;;;;;8.79;46.30;100728.20;1678169;85;21168;-42
2021/03/22 11:58:36;;;;;;;7.03;6.33;;;;;;;8.71;46.53;100738.27;1678215;85;21316;-48
2021/03/22 12:01:21;;;;;;;6.20;5.60;;;;;;;8.63;46.91;100732.33;1678175;85;21217;-44
2021/03/22 12:04:09;;;;;;;6.17;5.35;;;;;;;8.55;48.00;100736.77;1672825;85;21176;-46
2021/03/22 12:06:59;;;;;;;6.67;5.97;;;;;;;8.51;48.36;100740.28;1769368;79;22915;-45
2021/03/22 12:09:28;;;;;;;8.78;6.97;;;;;;;8.41;48.73;100744.72;1689189;85;21176;-48
2021/03/22 12:11:57;;;;;;;9.10;7.10;;;;;;;8.39;48.69;100732.67;1688930;85;21188;-47
2021/03/22 12:14:26;;;;;;;6.85;6.17;;;;;;;8.42;48.90;100744.28;1688996;85;21378;-47
2021/03/22 12:17:02;;;;;;;12.07;8.40;;;;;;;8.46;49.88;100744.66;1688907;85;21175;-42
2021/03/22 12:19:35;;;;;;;11.38;8.33;;;;;;;8.46;49.81;100752.02;1689254;85;21177;-44
2021/03/22 12:22:18;;;;;;;8.85;7.45;;;;;;;8.50;50.05;100743.74;1766558;79;22917;-42